createdAt,value
2023-05-19T00:00:25.495Z,101863.38
2023-05-19T00:05:28.122Z,101856.84
2023-05-19T00:10:31.748Z,101863.47
2023-05-19T00:15:33.516Z,101858.53
2023-05-19T00:20:35.080Z,101851.47
2023-05-19T00:25:36.481Z,101849.00
2023-05-19T00:30:37.830Z,101850.13
2023-05-19T00:35:40.630Z,101845.47
2023-05-19T00:40:42.145Z,101851.72
2023-05-19T00:45:43.520Z,101848.03
2023-05-19T00:50:45.583Z,101849.16
2023-05-19T00:55:47.683Z,101840.81
2023-05-19T01:00:49.893Z,101847.09
2023-05-19T01:05:53.734Z,101846.41
2023-05-19T01:10:55.328Z,101844.19
2023-05-19T01:16:01.588Z,101844.88
2023-05-19T01:21:26.149Z,101846.63
2023-05-19T01:26:27.449Z,101851.75
2023-05-19T01:31:28.926Z,101846.28
2023-05-19T01:36:31.943Z,101853.75
2023-05-19T01:41:34.571Z,101846.63
2023-05-19T01:46:36.414Z,101849.03
2023-05-19T01:51:38.092Z,101843.59
2023-05-19T01:56:47.130Z,101844.97
2023-05-19T02:01:48.495Z,101850.34
2023-05-19T02:06:49.993Z,101844.47
2023-05-19T02:11:51.297Z,101839.13
2023-05-19T02:16:53.236Z,101844.66
2023-05-19T02:21:54.876Z,101851.56
2023-05-19T02:26:56.231Z,101845.25
2023-05-19T02:31:58.834Z,101850.56
2023-05-19T02:37:01.237Z,101851.78
2023-05-19T02:42:02.677Z,101854.41
2023-05-19T02:47:04.181Z,101853.72
2023-05-19T02:52:05.822Z,101860.78
2023-05-19T02:57:07.981Z,101856.75
2023-05-19T03:02:09.362Z,101853.97
2023-05-19T03:07:11.047Z,101852.13
2023-05-19T03:12:12.537Z,101850.03
2023-05-19T03:17:13.922Z,101847.44
2023-05-19T03:22:15.422Z,101843.31
2023-05-19T03:27:16.795Z,101839.25
2023-05-19T03:32:18.207Z,101844.53
2023-05-19T03:37:19.564Z,101836.94
2023-05-19T03:42:21.119Z,101844.00
2023-05-19T03:47:22.552Z,101850.19
2023-05-19T03:52:23.889Z,101849.13
2023-05-19T03:57:25.335Z,101855.34
2023-05-19T04:02:26.802Z,101856.16
2023-05-19T04:07:28.207Z,101852.88
2023-05-19T04:12:29.585Z,101850.03
2023-05-19T04:17:31.325Z,101853.53
2023-05-19T04:22:32.784Z,101864.13
2023-05-19T04:27:36.632Z,101864.56
2023-05-19T04:32:39.598Z,101855.50
2023-05-19T04:37:41.127Z,101851.34
2023-05-19T04:42:42.819Z,101856.56
2023-05-19T04:47:44.493Z,101860.28
2023-05-19T04:52:45.901Z,101862.78
2023-05-19T04:57:47.355Z,101870.34
2023-05-19T05:02:49.109Z,101859.91
2023-05-19T05:07:50.810Z,101865.66
2023-05-19T05:12:52.352Z,101859.41
2023-05-19T05:17:53.870Z,101859.00
2023-05-19T05:22:55.829Z,101865.09
2023-05-19T05:27:58.908Z,101863.84
2023-05-19T05:33:00.749Z,101865.31
2023-05-19T05:38:02.434Z,101857.13
2023-05-19T05:43:03.828Z,101850.94
2023-05-19T05:48:05.536Z,101859.16
2023-05-19T05:53:07.954Z,101847.78
2023-05-19T05:58:11.174Z,101849.25
2023-05-19T06:03:13.451Z,101840.09
2023-05-19T06:08:15.166Z,101832.53
2023-05-19T06:13:22.252Z,101836.50
2023-05-19T06:18:23.695Z,101828.69
2023-05-19T06:23:26.769Z,101830.84
2023-05-19T06:28:28.155Z,101827.84
2023-05-19T06:33:29.569Z,101818.47
2023-05-19T06:38:31.489Z,101824.00
2023-05-19T06:43:32.842Z,101826.44
2023-05-19T06:48:34.216Z,101823.22
2023-05-19T06:53:35.744Z,101821.66
2023-05-19T06:58:37.141Z,101814.75
2023-05-19T07:03:38.719Z,101812.50
2023-05-19T07:08:40.226Z,101810.06
2023-05-19T07:13:42.061Z,101807.50
2023-05-19T07:18:43.437Z,101794.88
2023-05-19T07:23:44.936Z,101796.00
2023-05-19T07:28:46.307Z,101804.41
2023-05-19T07:33:47.662Z,101788.03
2023-05-19T07:38:49.093Z,101785.81
2023-05-19T07:43:50.468Z,101784.03
2023-05-19T07:48:51.878Z,101777.94
2023-05-19T07:53:53.238Z,101778.69
2023-05-19T07:58:54.629Z,101766.81
2023-05-19T08:03:56.055Z,101770.09
2023-05-19T08:08:57.471Z,101759.06
2023-05-19T08:13:58.972Z,101747.69
2023-05-19T08:19:02.752Z,101751.13
2023-05-19T08:24:04.405Z,101746.63
2023-05-19T08:29:05.880Z,101738.91
2023-05-19T08:34:07.332Z,101736.19
2023-05-19T08:39:08.714Z,101727.50
2023-05-19T08:44:10.144Z,101722.19
2023-05-19T08:49:13.014Z,101714.00
2023-05-19T08:54:15.762Z,101715.53
2023-05-19T08:59:17.405Z,101711.25
2023-05-19T09:04:19.594Z,101705.78
2023-05-19T09:09:22.222Z,101700.41
2023-05-19T09:14:23.943Z,101680.94
2023-05-19T09:19:28.803Z,101673.81
2023-05-19T09:24:30.263Z,101672.53
2023-05-19T09:29:31.944Z,101666.66
2023-05-19T09:34:33.293Z,101651.06
2023-05-19T09:39:34.931Z,101657.44
2023-05-19T09:44:36.298Z,101655.03
2023-05-19T09:49:38.643Z,101656.25
2023-05-19T09:54:40.349Z,101657.91
2023-05-19T09:59:42.302Z,101646.81
2023-05-19T10:04:43.910Z,101635.69
2023-05-19T10:09:45.998Z,101632.03
2023-05-19T10:14:47.765Z,101632.66
2023-05-19T10:19:49.552Z,101629.06
2023-05-19T10:24:50.962Z,101627.31
2023-05-19T10:29:54.359Z,101615.25
2023-05-19T10:35:09.167Z,101620.66
2023-05-19T10:40:16.958Z,101597.00
2023-05-19T10:45:22.527Z,101600.53
2023-05-19T10:50:23.984Z,101601.84
2023-05-19T10:55:44.109Z,101596.88
2023-05-19T11:00:45.546Z,101596.88
2023-05-19T11:05:50.030Z,101593.03
2023-05-19T11:10:51.984Z,101586.69
2023-05-19T11:15:53.488Z,101575.00
2023-05-19T11:21:00.799Z,101570.13
2023-05-19T11:26:02.575Z,101568.38
2023-05-19T11:31:07.994Z,101568.78
2023-05-19T11:36:10.798Z,101563.78
2023-05-19T11:41:15.565Z,101556.09
2023-05-19T11:46:17.959Z,101550.78
2023-05-19T11:51:21.058Z,101558.97
2023-05-19T11:56:22.472Z,101552.66
2023-05-19T12:01:26.897Z,101550.25
2023-05-19T12:06:29.171Z,101547.31
2023-05-19T12:11:31.755Z,101524.22
2023-05-19T12:16:34.599Z,101528.38
2023-05-19T12:21:36.175Z,101527.59
2023-05-19T12:26:37.595Z,101517.72
2023-05-19T12:31:39.140Z,101511.53
2023-05-19T12:36:41.178Z,101499.41
2023-05-19T12:41:44.763Z,101500.53
2023-05-19T12:46:46.288Z,101505.94
2023-05-19T12:51:54.057Z,101488.00
2023-05-19T12:56:57.499Z,101489.53
2023-05-19T13:01:59.097Z,101489.78
2023-05-19T13:07:00.548Z,101471.34
2023-05-19T13:12:02.326Z,101472.44
2023-05-19T13:17:04.046Z,101472.53
2023-05-19T13:22:05.475Z,101475.91
2023-05-19T13:27:06.957Z,101468.00
2023-05-19T13:32:08.619Z,101464.50
2023-05-19T13:37:11.443Z,101461.22
2023-05-19T13:42:12.921Z,101459.69
2023-05-19T13:47:14.354Z,101444.06
2023-05-19T13:52:15.755Z,101443.63
2023-05-19T13:57:17.124Z,101437.47
2023-05-19T14:02:19.118Z,101430.84
2023-05-19T14:07:21.170Z,101437.50
2023-05-19T14:12:27.632Z,101431.84
2023-05-19T14:17:36.121Z,101424.94
2023-05-19T14:22:37.550Z,101418.50
2023-05-19T14:27:40.116Z,101416.94
2023-05-19T14:32:41.980Z,101404.97
2023-05-19T14:37:43.617Z,101405.44
2023-05-19T14:42:44.973Z,101395.88
2023-05-19T14:47:47.738Z,101409.13
2023-05-19T14:52:49.415Z,101407.72
2023-05-19T14:57:50.869Z,101405.63
2023-05-19T15:02:52.851Z,101410.13
2023-05-19T15:07:54.233Z,101390.25
2023-05-19T15:12:57.554Z,101380.97
2023-05-19T15:17:58.973Z,101389.38
2023-05-19T15:23:00.490Z,101375.91
2023-05-19T15:28:01.970Z,101388.84
2023-05-19T15:33:03.367Z,101385.59
2023-05-19T15:38:06.317Z,101383.22
2023-05-19T15:43:07.699Z,101368.66
2023-05-19T15:48:09.097Z,101365.53
2023-05-19T15:53:10.649Z,101355.84
2023-05-19T15:58:13.735Z,101362.13
2023-05-19T16:03:15.282Z,101360.00
2023-05-19T16:08:16.737Z,101348.28
2023-05-19T16:13:18.555Z,101341.13
2023-05-19T16:18:19.984Z,101342.16
2023-05-19T16:23:21.424Z,101350.84
2023-05-19T16:28:24.911Z,101346.81
2023-05-19T16:33:28.332Z,101352.69
2023-05-19T16:38:29.699Z,101340.44
2023-05-19T16:43:33.413Z,101344.16
2023-05-19T16:48:34.782Z,101338.63
2023-05-19T16:53:36.146Z,101333.63
2023-05-19T16:58:37.547Z,101336.19
2023-05-19T17:03:39.042Z,101343.09
2023-05-19T17:08:40.575Z,101341.81
2023-05-19T17:13:43.829Z,101337.66
2023-05-19T17:18:45.308Z,101336.88
2023-05-19T17:23:46.746Z,101338.41
2023-05-19T17:28:48.501Z,101345.31
2023-05-19T17:33:50.151Z,101354.78
2023-05-19T17:38:51.518Z,101349.69
2023-05-19T17:43:53.038Z,101350.97
2023-05-19T17:48:54.378Z,101349.34
2023-05-19T17:53:55.913Z,101351.19
2023-05-19T17:58:57.466Z,101349.91
2023-05-19T18:03:59.022Z,101365.63
2023-05-19T18:09:01.198Z,101362.31
2023-05-19T18:14:02.697Z,101359.72
2023-05-19T18:19:04.105Z,101365.06
2023-05-19T18:24:05.934Z,101373.00
2023-05-19T18:29:10.961Z,101385.47
2023-05-19T18:34:13.901Z,101384.78
2023-05-19T18:39:15.301Z,101380.56
2023-05-19T18:44:16.752Z,101396.34
2023-05-19T18:49:18.344Z,101394.25
2023-05-19T18:54:21.612Z,101409.09
2023-05-19T18:59:24.457Z,101401.13
2023-05-19T19:04:25.846Z,101400.69
2023-05-19T19:09:27.222Z,101408.59
2023-05-19T19:14:28.601Z,101409.97
2023-05-19T19:19:30.556Z,101424.56
2023-05-19T19:24:32.205Z,101420.91
2023-05-19T19:29:33.541Z,101428.75
2023-05-19T19:34:34.871Z,101433.59
2023-05-19T19:39:36.225Z,101437.13
2023-05-19T19:44:37.582Z,101440.50
2023-05-19T19:49:38.957Z,101445.94
2023-05-19T19:54:40.370Z,101448.50
2023-05-19T19:59:41.714Z,101443.66
2023-05-19T20:04:43.107Z,101463.47
2023-05-19T20:09:44.629Z,101475.38
2023-05-19T20:14:46.584Z,101473.97
2023-05-19T20:19:48.174Z,101470.91
2023-05-19T20:24:49.505Z,101477.91
2023-05-19T20:29:50.973Z,101486.47
2023-05-19T20:34:52.353Z,101494.69
2023-05-19T20:39:53.722Z,101495.88
2023-05-19T20:44:55.108Z,101496.66
2023-05-19T20:49:56.461Z,101501.91
2023-05-19T20:54:57.821Z,101503.59
2023-05-19T20:59:59.381Z,101509.41
2023-05-19T21:05:01.031Z,101516.84
2023-05-19T21:10:02.506Z,101508.97
2023-05-19T21:15:05.937Z,101506.09
2023-05-19T21:20:07.775Z,101508.06
2023-05-19T21:25:09.227Z,101509.53
2023-05-19T21:30:11.070Z,101517.59
2023-05-19T21:35:12.434Z,101523.16
2023-05-19T21:40:13.758Z,101525.72
2023-05-19T21:45:15.174Z,101529.91
2023-05-19T21:50:17.430Z,101525.22
2023-05-19T21:55:18.776Z,101523.78
2023-05-19T22:00:20.196Z,101523.78
2023-05-19T22:05:21.895Z,101518.72
2023-05-19T22:10:23.309Z,101527.53
2023-05-19T22:15:24.679Z,101520.03
2023-05-19T22:20:26.012Z,101528.38
2023-05-19T22:25:27.685Z,101516.75
2023-05-19T22:30:29.119Z,101506.72
2023-05-19T22:35:30.472Z,101505.94
2023-05-19T22:40:32.510Z,101503.16
2023-05-19T22:45:35.350Z,101505.25
2023-05-19T22:50:36.934Z,101507.56
2023-05-19T22:55:38.330Z,101512.31
2023-05-19T23:00:39.692Z,101506.25
2023-05-19T23:05:41.443Z,101503.06
2023-05-19T23:10:42.804Z,101512.31
2023-05-19T23:15:44.181Z,101515.00
2023-05-19T23:20:45.754Z,101511.16
2023-05-19T23:25:47.088Z,101513.78
2023-05-19T23:30:48.422Z,101509.88
2023-05-19T23:35:49.800Z,101511.75
2023-05-19T23:40:51.179Z,101508.69
2023-05-19T23:45:52.603Z,101517.47
2023-05-19T23:50:53.963Z,101500.38
2023-05-19T23:55:56.458Z,101511.03
